Time;durP1;ratioP1;P1;durP2;ratioP2;P2;SDS_P1;SDS_P2;PMS_P1;PMS_P2;Temp;Humidity;BMP_temperature;BMP_pressure;BME280_temperature;BME280_humidity;BME280_pressure;Samples;Min_cycle;Max_cycle;Signal;HPM_P1;HPM_P2
2022/07/22 00:01:28;;;;;;;10.50;8.40;;;17.30;99.90;;;;;;5054978;28;20178;-66
2022/07/22 00:03:54;;;;;;;10.53;7.73;;;17.30;99.90;;;;;;5054167;28;20202;-66
2022/07/22 00:06:19;;;;;;;11.30;8.80;;;17.20;99.90;;;;;;5054724;28;20254;-66
2022/07/22 00:08:45;;;;;;;11.40;8.03;;;17.30;99.90;;;;;;5053106;28;20648;-66
2022/07/22 00:11:11;;;;;;;9.67;8.73;;;17.30;99.90;;;;;;5054621;28;20170;-66
2022/07/22 00:13:36;;;;;;;14.00;7.77;;;17.30;99.90;;;;;;5054196;28;20175;-66
2022/07/22 00:16:02;;;;;;;12.27;8.60;;;17.30;99.90;;;;;;5054552;28;20174;-66
2022/07/22 00:18:28;;;;;;;9.30;8.43;;;17.20;99.90;;;;;;5054254;28;20228;-66
2022/07/22 00:20:54;;;;;;;14.03;9.00;;;17.20;99.90;;;;;;5054484;28;20194;-66
2022/07/22 00:23:19;;;;;;;14.20;9.27;;;17.10;99.90;;;;;;5053905;28;20175;-66
2022/07/22 00:25:45;;;;;;;9.13;8.23;;;17.10;99.90;;;;;;5053770;28;20209;-66
2022/07/22 00:28:10;;;;;;;13.07;9.00;;;17.10;99.90;;;;;;5054064;28;20656;-66
2022/07/22 00:30:36;;;;;;;8.83;7.90;;;17.10;99.90;;;;;;5054336;28;20187;-66
2022/07/22 00:33:03;;;;;;;9.83;8.83;;;17.10;99.90;;;;;;5054044;28;20225;-66
2022/07/22 00:35:28;;;;;;;13.07;9.20;;;17.10;99.90;;;;;;5052720;28;20198;-66
2022/07/22 00:37:54;;;;;;;13.07;8.97;;;17.10;99.90;;;;;;5053854;28;20179;-66
2022/07/22 00:40:19;;;;;;;10.33;9.00;;;17.10;99.90;;;;;;5054079;28;20393;-66
2022/07/22 00:42:45;;;;;;;13.43;9.03;;;17.20;99.90;;;;;;5054059;28;20209;-66
2022/07/22 00:45:11;;;;;;;16.13;9.17;;;17.20;99.90;;;;;;5051922;28;20615;-66
2022/07/22 00:47:37;;;;;;;12.83;9.67;;;17.20;99.90;;;;;;5053998;28;20167;-66
2022/07/22 00:50:03;;;;;;;10.60;9.50;;;17.20;99.90;;;;;;5053096;28;20277;-66
2022/07/22 00:52:30;;;;;;;10.20;9.20;;;17.20;99.90;;;;;;5053634;28;20656;-66
2022/07/22 00:54:56;;;;;;;21.23;11.17;;;17.20;99.90;;;;;;5052024;28;20183;-66
2022/07/22 00:57:22;;;;;;;20.10;10.30;;;17.20;99.90;;;;;;5053884;28;20265;-66
2022/07/22 00:59:47;;;;;;;11.67;9.53;;;17.20;99.90;;;;;;5053664;28;20286;-66
2022/07/22 01:02:13;;;;;;;11.50;10.30;;;17.20;99.90;;;;;;5052450;28;20171;-66
2022/07/22 01:04:39;;;;;;;15.07;11.33;;;17.20;99.90;;;;;;5053064;28;20207;-66
2022/07/22 01:07:05;;;;;;;10.67;9.57;;;17.20;99.90;;;;;;5053249;28;20656;-66
2022/07/22 01:09:31;;;;;;;16.77;10.50;;;17.20;99.90;;;;;;5053402;28;20206;-66
2022/07/22 01:11:56;;;;;;;13.90;11.10;;;17.20;99.90;;;;;;5053491;28;20175;-66
2022/07/22 01:14:22;;;;;;;12.40;10.50;;;17.20;99.90;;;;;;5052904;28;20179;-65
2022/07/22 01:16:48;;;;;;;11.00;9.90;;;17.20;99.90;;;;;;5053620;28;20213;-66
2022/07/22 01:19:13;;;;;;;15.90;10.47;;;17.20;99.90;;;;;;5053041;28;20213;-66
2022/07/22 01:21:39;;;;;;;15.63;11.43;;;17.20;99.90;;;;;;5053404;28;20179;-66
2022/07/22 01:24:05;;;;;;;15.97;11.10;;;17.20;99.90;;;;;;5052437;28;20599;-66
2022/07/22 01:26:33;;;;;;;15.03;9.97;;;17.20;99.90;;;;;;5052181;28;20224;-66
2022/07/22 01:28:58;;;;;;;13.70;10.40;;;17.20;99.90;;;;;;5052881;28;20170;-66
2022/07/22 01:31:24;;;;;;;11.40;10.37;;;17.20;99.90;;;;;;5053222;28;20175;-66
2022/07/22 01:33:50;;;;;;;13.30;11.50;;;17.20;99.90;;;;;;5052595;28;20186;-66
2022/07/22 01:36:16;;;;;;;13.53;12.13;;;17.10;99.90;;;;;;5053009;28;20682;-66
2022/07/22 01:38:41;;;;;;;13.27;11.83;;;17.10;99.90;;;;;;5052878;28;20174;-66
2022/07/22 01:41:07;;;;;;;12.80;10.20;;;17.10;99.90;;;;;;5052550;28;20238;-66
2022/07/22 01:43:33;;;;;;;14.67;11.77;;;17.00;99.90;;;;;;5052694;28;20175;-66
2022/07/22 01:45:59;;;;;;;19.80;11.97;;;17.10;99.90;;;;;;5052632;28;20190;-66
2022/07/22 01:48:25;;;;;;;14.97;11.43;;;17.10;99.90;;;;;;5052830;28;20632;-66
2022/07/22 01:50:51;;;;;;;13.17;11.67;;;17.00;99.90;;;;;;5052382;28;20187;-66
2022/07/22 01:53:17;;;;;;;13.47;10.80;;;17.00;99.90;;;;;;5052473;28;20178;-66
2022/07/22 01:55:42;;;;;;;18.47;11.57;;;17.00;99.90;;;;;;5052219;28;20309;-66
2022/07/22 01:58:08;;;;;;;14.50;10.43;;;17.00;99.90;;;;;;5052588;28;20651;-66
2022/07/22 02:00:34;;;;;;;13.07;11.03;;;17.10;99.90;;;;;;5052102;28;20207;-66
2022/07/22 02:03:00;;;;;;;13.73;10.80;;;17.10;99.90;;;;;;5052171;28;20202;-66
2022/07/22 02:05:25;;;;;;;15.07;11.20;;;17.10;99.90;;;;;;5051987;28;20260;-66
2022/07/22 02:07:51;;;;;;;15.40;10.93;;;17.20;99.90;;;;;;5051339;28;20198;-66
2022/07/22 02:10:17;;;;;;;15.80;10.90;;;17.20;99.90;;;;;;5052097;28;20691;-66
2022/07/22 02:12:43;;;;;;;12.23;11.03;;;17.20;99.90;;;;;;5052274;28;20173;-66
2022/07/22 02:15:09;;;;;;;16.43;11.13;;;17.10;99.90;;;;;;5051630;28;20536;-66
2022/07/22 02:17:35;;;;;;;15.97;10.73;;;17.10;99.90;;;;;;5052100;28;20636;-66
2022/07/22 02:20:02;;;;;;;17.13;11.50;;;17.20;99.90;;;;;;5052114;28;20195;-66
2022/07/22 02:22:28;;;;;;;15.43;11.13;;;17.20;99.90;;;;;;5051917;28;20179;-66
2022/07/22 02:24:54;;;;;;;12.10;10.83;;;17.10;99.90;;;;;;5051825;28;20664;-66
2022/07/22 02:27:20;;;;;;;15.40;11.13;;;17.10;99.90;;;;;;5051096;28;20232;-66
2022/07/22 02:29:46;;;;;;;11.13;9.80;;;17.10;99.90;;;;;;5064008;28;20675;-66
2022/07/22 02:32:11;;;;;;;15.83;10.03;;;17.10;99.90;;;;;;5071899;28;20647;-66
2022/07/22 02:34:37;;;;;;;19.77;10.90;;;17.00;99.90;;;;;;5071559;28;20249;-66
2022/07/22 02:37:03;;;;;;;18.93;10.47;;;17.00;99.90;;;;;;5067116;28;20649;-66
2022/07/22 02:39:28;;;;;;;17.20;11.37;;;17.00;99.90;;;;;;5051804;28;20233;-66
2022/07/22 02:41:54;;;;;;;16.70;12.07;;;17.00;99.90;;;;;;5051901;28;20171;-66
2022/07/22 02:44:20;;;;;;;14.07;11.83;;;17.00;99.90;;;;;;5051366;28;20664;-66
2022/07/22 02:46:45;;;;;;;15.63;11.10;;;17.00;99.90;;;;;;5051532;28;20187;-66
2022/07/22 02:49:11;;;;;;;13.13;11.53;;;17.00;99.90;;;;;;5051683;28;20187;-66
2022/07/22 02:51:37;;;;;;;14.87;11.13;;;17.00;99.90;;;;;;5051519;28;20304;-66
2022/07/22 02:54:03;;;;;;;14.80;10.90;;;17.00;99.90;;;;;;5051323;28;20178;-66
2022/07/22 02:56:29;;;;;;;14.90;10.83;;;17.00;99.90;;;;;;5051467;28;20183;-66
2022/07/22 02:58:54;;;;;;;16.67;11.53;;;17.00;99.90;;;;;;5051477;28;20178;-66
2022/07/22 03:01:20;;;;;;;19.87;12.13;;;16.90;99.90;;;;;;5051631;28;20183;-66
2022/07/22 03:03:46;;;;;;;23.17;11.33;;;16.90;99.90;;;;;;5051316;28;20182;-66
2022/07/22 03:06:12;;;;;;;14.53;11.37;;;16.90;99.90;;;;;;5051225;28;20167;-66
2022/07/22 03:08:39;;;;;;;14.60;12.03;;;16.90;99.90;;;;;;5050200;28;20182;-66
2022/07/22 03:11:05;;;;;;;13.63;10.57;;;17.00;99.90;;;;;;5051037;28;20194;-66
2022/07/22 03:13:30;;;;;;;16.53;12.20;;;17.00;99.90;;;;;;5051211;28;20208;-66
2022/07/22 03:15:56;;;;;;;13.23;11.83;;;17.00;99.90;;;;;;5051395;28;20781;-66
2022/07/22 03:18:22;;;;;;;14.03;11.30;;;17.10;99.90;;;;;;5051812;28;20182;-66
2022/07/22 03:20:57;;;;;;;15.30;11.87;;;17.10;99.90;;;;;;5050532;28;20195;-66
2022/07/22 03:23:22;;;;;;;13.00;11.63;;;17.10;99.90;;;;;;5051314;28;20228;-66
2022/07/22 03:25:48;;;;;;;14.37;12.13;;;17.10;99.90;;;;;;5051042;28;20598;-66
2022/07/22 03:28:13;;;;;;;14.03;11.80;;;17.00;99.90;;;;;;5051322;28;20202;-66
2022/07/22 03:30:39;;;;;;;11.40;10.40;;;17.10;99.90;;;;;;5050985;28;20233;-66
2022/07/22 03:33:04;;;;;;;12.50;11.40;;;17.10;99.90;;;;;;5031532;28;20771;-66
2022/07/22 03:35:30;;;;;;;21.17;11.43;;;17.00;99.90;;;;;;5031271;28;20188;-66
2022/07/22 03:37:56;;;;;;;13.60;11.60;;;17.00;99.90;;;;;;5049646;28;20210;-66
2022/07/22 03:40:21;;;;;;;12.80;11.13;;;17.10;99.90;;;;;;5049872;28;20218;-66
2022/07/22 03:42:47;;;;;;;17.23;11.10;;;17.00;99.90;;;;;;5049565;28;20182;-66
2022/07/22 03:45:13;;;;;;;12.00;10.93;;;17.10;99.90;;;;;;5050769;28;20309;-66
2022/07/22 03:47:38;;;;;;;12.33;9.97;;;17.10;99.90;;;;;;5050943;28;20175;-66
2022/07/22 03:50:05;;;;;;;11.57;10.33;;;17.00;99.90;;;;;;5051059;28;20195;-66
2022/07/22 03:52:30;;;;;;;14.37;10.23;;;17.00;99.90;;;;;;5050866;28;20260;-66
2022/07/22 03:54:56;;;;;;;11.17;10.07;;;17.00;99.90;;;;;;5050734;28;20210;-66
2022/07/22 03:57:22;;;;;;;11.57;10.57;;;17.10;99.90;;;;;;5051017;28;20224;-66
2022/07/22 03:59:47;;;;;;;11.83;9.53;;;17.00;99.90;;;;;;5051310;28;20541;-66
2022/07/22 04:02:13;;;;;;;11.60;9.23;;;17.00;99.90;;;;;;5050830;28;20186;-66
2022/07/22 04:04:39;;;;;;;15.07;10.00;;;17.00;99.90;;;;;;5050531;28;20203;-66
2022/07/22 04:07:04;;;;;;;14.13;9.20;;;17.00;99.90;;;;;;5050585;28;20175;-66
2022/07/22 04:09:30;;;;;;;10.97;9.20;;;17.00;99.90;;;;;;5051247;28;20202;-66
2022/07/22 04:11:56;;;;;;;10.93;9.83;;;17.00;99.90;;;;;;5050749;28;20171;-66
2022/07/22 04:14:21;;;;;;;10.20;9.30;;;17.00;99.90;;;;;;5050662;28;20449;-66
2022/07/22 04:16:47;;;;;;;15.93;10.37;;;17.00;99.90;;;;;;5049308;28;20572;-66
2022/07/22 04:19:13;;;;;;;15.13;9.60;;;17.00;99.90;;;;;;5050722;28;21027;-66
2022/07/22 04:21:39;;;;;;;11.47;9.50;;;17.00;99.90;;;;;;5050673;28;20186;-66
2022/07/22 04:24:05;;;;;;;12.50;9.40;;;17.10;99.90;;;;;;5050704;28;20207;-66
2022/07/22 04:26:31;;;;;;;12.03;8.90;;;17.10;99.90;;;;;;5054239;28;20239;-66
2022/07/22 04:28:56;;;;;;;13.07;9.40;;;17.10;99.90;;;;;;5054229;28;20163;-66
2022/07/22 04:31:22;;;;;;;10.07;9.07;;;17.20;99.90;;;;;;5053561;28;20179;-66
2022/07/22 04:33:48;;;;;;;11.53;9.47;;;17.20;99.90;;;;;;5052737;28;20251;-66
2022/07/22 04:36:13;;;;;;;12.97;9.87;;;17.20;99.90;;;;;;5054274;28;20632;-66
2022/07/22 04:38:39;;;;;;;11.47;9.47;;;17.30;99.90;;;;;;5052936;28;20184;-66
2022/07/22 04:41:05;;;;;;;11.67;8.97;;;17.30;99.90;;;;;;5054471;28;20289;-66
2022/07/22 04:43:31;;;;;;;11.37;9.60;;;17.30;99.90;;;;;;5053853;28;20257;-66
2022/07/22 04:45:57;;;;;;;13.43;8.97;;;17.30;99.90;;;;;;5053771;28;20207;-65
2022/07/22 04:48:23;;;;;;;12.80;10.00;;;17.30;99.90;;;;;;5052684;28;20658;-66
2022/07/22 04:50:48;;;;;;;11.70;10.53;;;17.30;99.90;;;;;;5053677;28;20206;-66
2022/07/22 04:53:14;;;;;;;10.73;9.60;;;17.40;99.90;;;;;;5053781;28;20178;-65
2022/07/22 04:55:40;;;;;;;12.33;9.73;;;17.40;99.90;;;;;;5052043;28;20186;-66
2022/07/22 04:58:05;;;;;;;14.63;10.10;;;17.40;99.90;;;;;;5052393;28;20269;-66
2022/07/22 05:00:31;;;;;;;12.83;9.30;;;17.40;99.90;;;;;;5053549;28;20203;-66
2022/07/22 05:02:57;;;;;;;10.60;9.10;;;17.50;99.90;;;;;;5052310;28;20189;-65
2022/07/22 05:05:23;;;;;;;11.53;10.30;;;17.50;99.90;;;;;;5053023;28;20692;-65
2022/07/22 05:07:48;;;;;;;17.77;10.03;;;17.50;99.90;;;;;;5053918;28;20232;-66
2022/07/22 05:10:14;;;;;;;11.30;10.13;;;17.50;99.90;;;;;;5053335;28;20568;-66
2022/07/22 05:12:40;;;;;;;14.27;11.43;;;17.50;99.90;;;;;;5053505;28;20203;-65
2022/07/22 05:15:06;;;;;;;12.20;10.73;;;17.60;99.90;;;;;;5052874;28;20250;-65
2022/07/22 05:17:31;;;;;;;13.83;11.47;;;17.60;99.90;;;;;;5053535;28;20566;-65
2022/07/22 05:19:57;;;;;;;17.10;12.40;;;17.60;99.90;;;;;;5053164;28;20202;-66
2022/07/22 05:22:23;;;;;;;12.93;11.63;;;17.60;99.90;;;;;;5053372;28;20308;-65
2022/07/22 05:24:48;;;;;;;12.63;10.40;;;17.60;99.90;;;;;;5052851;28;20281;-66
2022/07/22 05:27:14;;;;;;;10.60;9.23;;;17.70;99.90;;;;;;5052750;28;20175;-66
2022/07/22 05:29:39;;;;;;;9.80;8.97;;;17.80;99.90;;;;;;5053224;28;20191;-66
2022/07/22 05:32:05;;;;;;;10.77;9.17;;;17.80;99.90;;;;;;5052922;28;20206;-65
2022/07/22 05:34:31;;;;;;;14.87;8.97;;;17.80;99.90;;;;;;5051759;28;20210;-64
2022/07/22 05:36:56;;;;;;;13.33;9.03;;;17.80;99.90;;;;;;5051612;28;20179;-65
2022/07/22 05:39:22;;;;;;;11.37;9.10;;;17.80;99.90;;;;;;5051681;28;20206;-64
2022/07/22 05:41:48;;;;;;;10.30;9.30;;;17.80;99.90;;;;;;5052744;28;20244;-67
2022/07/22 05:44:14;;;;;;;11.77;10.43;;;17.80;99.90;;;;;;5052630;28;20210;-67
2022/07/22 05:46:39;;;;;;;12.37;9.97;;;17.90;99.90;;;;;;5052683;28;20170;-66
2022/07/22 05:49:05;;;;;;;12.23;9.30;;;18.00;99.90;;;;;;5051522;28;20174;-67
2022/07/22 05:51:31;;;;;;;12.50;9.73;;;18.10;99.90;;;;;;5052924;28;20265;-66
2022/07/22 05:53:57;;;;;;;9.93;8.23;;;18.10;99.90;;;;;;5051972;28;20163;-66
2022/07/22 05:56:22;;;;;;;9.53;8.63;;;18.20;99.90;;;;;;5052370;28;20629;-67
2022/07/22 05:58:48;;;;;;;12.43;8.73;;;18.20;99.90;;;;;;5052695;28;20209;-67
2022/07/22 06:01:13;;;;;;;9.80;8.60;;;18.30;99.90;;;;;;5052366;28;20187;-66
2022/07/22 06:03:39;;;;;;;11.17;8.57;;;18.40;99.90;;;;;;5051214;28;20195;-66
2022/07/22 06:06:08;;;;;;;12.43;10.60;;;18.40;99.90;;;;;;5051526;28;20187;-65
2022/07/22 06:08:34;;;;;;;11.73;9.97;;;18.30;99.90;;;;;;5052475;28;20183;-65
2022/07/22 06:11:00;;;;;;;11.93;10.07;;;18.10;99.90;;;;;;5051931;28;20203;-65
2022/07/22 06:13:26;;;;;;;10.83;9.77;;;18.10;99.90;;;;;;5051941;28;20651;-67
2022/07/22 06:15:52;;;;;;;15.93;10.20;;;18.00;99.90;;;;;;5051965;28;20270;-65
2022/07/22 06:18:18;;;;;;;9.50;8.60;;;17.80;99.90;;;;;;5050837;28;20266;-65
2022/07/22 06:20:44;;;;;;;8.47;7.77;;;17.70;99.90;;;;;;5050491;28;20234;-65
2022/07/22 06:23:09;;;;;;;9.00;8.20;;;17.70;99.90;;;;;;5051947;28;20178;-67
2022/07/22 06:25:35;;;;;;;13.37;7.50;;;17.70;99.90;;;;;;5050837;28;20210;-65
2022/07/22 06:28:01;;;;;;;9.70;7.33;;;17.70;99.90;;;;;;5051684;28;20206;-65
2022/07/22 06:30:27;;;;;;;8.17;7.33;;;17.70;99.90;;;;;;5050370;28;20202;-65
2022/07/22 06:32:53;;;;;;;6.63;6.17;;;17.80;99.90;;;;;;5051809;28;20660;-65
2022/07/22 06:35:18;;;;;;;7.20;6.50;;;17.70;99.90;;;;;;5051642;28;20265;-67
2022/07/22 06:37:44;;;;;;;8.53;7.53;;;17.70;99.90;;;;;;5051721;28;20186;-67
2022/07/22 06:40:10;;;;;;;7.53;6.83;;;17.80;99.90;;;;;;5051457;28;20218;-65
2022/07/22 06:42:36;;;;;;;7.70;7.03;;;17.90;99.90;;;;;;5051674;28;20711;-65
2022/07/22 06:45:08;;;;;;;10.97;7.43;;;18.00;99.90;;;;;;5049817;28;20301;-65
2022/07/22 06:47:35;;;;;;;9.93;6.83;;;18.10;99.90;;;;;;5049981;28;20182;-65
2022/07/22 06:50:05;;;;;;;7.10;6.50;;;18.20;99.90;;;;;;5051504;28;20556;-65
2022/07/22 06:52:30;;;;;;;9.03;6.10;;;18.30;99.90;;;;;;5051452;28;20629;-64
2022/07/22 06:54:56;;;;;;;7.33;6.73;;;18.30;99.90;;;;;;5051084;28;20178;-65
2022/07/22 06:57:22;;;;;;;7.57;6.83;;;18.40;99.90;;;;;;5050918;28;20189;-65
2022/07/22 06:59:47;;;;;;;9.57;7.40;;;18.50;99.90;;;;;;5057507;28;20596;-64
2022/07/22 07:02:13;;;;;;;7.73;6.97;;;18.50;99.90;;;;;;5071525;28;20194;-65
2022/07/22 07:04:39;;;;;;;8.03;6.80;;;18.70;99.90;;;;;;5067730;28;20210;-66
2022/07/22 07:07:04;;;;;;;6.40;5.90;;;18.70;99.90;;;;;;5051285;28;20191;-66
2022/07/22 07:09:30;;;;;;;7.47;5.90;;;18.80;99.90;;;;;;5051210;28;20442;-66
2022/07/22 07:12:08;;;;;;;6.00;5.40;;;18.90;99.90;;;;;;5051438;28;20228;-66
2022/07/22 07:14:34;;;;;;;7.17;5.50;;;19.00;99.90;;;;;;5051022;28;20197;-66
2022/07/22 07:16:59;;;;;;;8.33;5.87;;;19.00;99.90;;;;;;5051217;28;20672;-66
2022/07/22 07:19:25;;;;;;;6.60;6.00;;;19.20;99.90;;;;;;5051338;28;20205;-65
2022/07/22 07:21:50;;;;;;;9.23;6.13;;;19.30;99.90;;;;;;5051113;28;20261;-66
2022/07/22 07:24:16;;;;;;;6.53;5.93;;;19.40;99.90;;;;;;5050867;28;20214;-66
2022/07/22 07:26:42;;;;;;;7.97;6.60;;;19.40;99.90;;;;;;5051063;28;20553;-66
2022/07/22 07:29:07;;;;;;;6.63;6.07;;;19.50;99.90;;;;;;5050938;28;20199;-65
2022/07/22 07:31:33;;;;;;;7.77;6.40;;;19.60;99.90;;;;;;5051252;28;20252;-67
2022/07/22 07:33:59;;;;;;;6.77;6.27;;;19.50;99.90;;;;;;5049278;28;20664;-66
2022/07/22 07:36:24;;;;;;;10.20;7.80;;;19.50;99.90;;;;;;5051091;28;20214;-66
2022/07/22 07:38:50;;;;;;;8.80;6.70;;;19.70;99.90;;;;;;5049662;28;20547;-66
2022/07/22 07:41:17;;;;;;;6.93;6.33;;;19.80;99.90;;;;;;5051260;28;20283;-66
2022/07/22 07:43:43;;;;;;;7.67;6.90;;;19.80;99.90;;;;;;5049536;28;20175;-66
2022/07/22 07:46:09;;;;;;;6.57;5.97;;;19.80;99.90;;;;;;5050836;28;20185;-66
2022/07/22 07:48:34;;;;;;;7.17;6.63;;;19.70;99.90;;;;;;5051213;28;20532;-66
2022/07/22 07:51:00;;;;;;;8.53;7.63;;;19.80;99.90;;;;;;5050421;28;20201;-67
2022/07/22 07:53:26;;;;;;;8.50;6.33;;;19.80;99.90;;;;;;5050663;28;20173;-67
2022/07/22 07:55:52;;;;;;;7.93;6.97;;;19.90;99.90;;;;;;5051199;28;20174;-67
2022/07/22 07:58:18;;;;;;;7.37;6.70;;;20.00;99.90;;;;;;5050923;28;20175;-67
2022/07/22 08:00:43;;;;;;;7.50;6.80;;;20.20;99.90;;;;;;5053739;28;20252;-67
2022/07/22 08:03:09;;;;;;;7.43;6.83;;;20.30;99.90;;;;;;5054692;28;20171;-67
2022/07/22 08:05:36;;;;;;;8.17;7.23;;;20.40;99.90;;;;;;5051938;28;20198;-68
2022/07/22 08:08:02;;;;;;;7.23;6.53;;;20.50;99.90;;;;;;5053381;28;20543;-68
2022/07/22 08:10:28;;;;;;;6.80;6.17;;;20.70;99.90;;;;;;5054146;28;20202;-67
2022/07/22 08:12:57;;;;;;;6.53;5.87;;;20.90;99.90;;;;;;5054439;28;20178;-67
2022/07/22 08:15:24;;;;;;;6.80;6.23;;;21.20;99.90;;;;;;5053999;28;20183;-68
2022/07/22 08:17:49;;;;;;;6.67;6.17;;;21.50;99.90;;;;;;5054528;28;20285;-68
2022/07/22 08:20:15;;;;;;;5.47;5.03;;;21.70;99.90;;;;;;5053868;28;20881;-67
2022/07/22 08:22:41;;;;;;;6.00;5.27;;;21.90;99.90;;;;;;5053212;28;20187;-67
2022/07/22 08:25:08;;;;;;;5.80;5.40;;;22.30;99.90;;;;;;5053651;28;20210;-67
2022/07/22 08:27:34;;;;;;;7.57;6.90;;;22.20;99.90;;;;;;5053923;28;20216;-66
2022/07/22 08:30:04;;;;;;;6.20;5.63;;;22.30;99.90;;;;;;5053972;28;20186;-66
2022/07/22 08:32:30;;;;;;;6.30;5.70;;;22.50;99.90;;;;;;5052942;28;20533;-67
2022/07/22 08:34:59;;;;;;;8.85;8.05;;;22.80;99.90;;;;;;5053554;28;20254;-67
2022/07/22 08:37:25;;;;;;;8.57;7.85;;;23.10;99.90;;;;;;5051726;28;20236;-67
2022/07/22 08:39:51;;;;;;;8.32;7.63;;;23.30;99.90;;;;;;5054049;28;20214;-65
2022/07/22 08:42:18;;;;;;;6.47;5.88;;;23.50;99.90;;;;;;5054019;28;20194;-66
2022/07/22 08:44:43;;;;;;;7.00;6.43;;;23.60;99.90;;;;;;5053734;28;20237;-67
2022/07/22 08:47:09;;;;;;;6.97;6.07;;;23.90;99.90;;;;;;5053738;28;20644;-67
2022/07/22 08:49:35;;;;;;;9.73;6.43;;;23.90;99.90;;;;;;5053424;28;20406;-67
2022/07/22 08:52:01;;;;;;;8.57;6.22;;;24.00;99.90;;;;;;5054069;28;20206;-67
2022/07/22 08:54:26;;;;;;;6.47;5.97;;;24.30;99.90;;;;;;5053619;28;20192;-67
2022/07/22 08:56:52;;;;;;;6.70;6.10;;;24.30;99.90;;;;;;5053674;28;20170;-67
2022/07/22 08:59:18;;;;;;;7.88;7.03;;;24.00;99.90;;;;;;5053835;28;20675;-67
2022/07/22 09:02:03;;;;;;;6.72;6.13;;;23.90;99.90;;;;;;5053828;28;20199;-67
2022/07/22 09:04:30;;;;;;;7.28;6.57;;;24.00;99.90;;;;;;5053598;28;20243;-67
2022/07/22 09:06:57;;;;;;;6.40;5.80;;;24.10;99.90;;;;;;5053525;28;20178;-67
2022/07/22 09:09:33;;;;;;;7.35;6.57;;;24.10;99.90;;;;;;5051668;28;20286;-65
2022/07/22 09:12:08;;;;;;;7.70;6.32;;;24.10;99.90;;;;;;5053372;28;20163;-67
2022/07/22 09:14:45;;;;;;;7.95;7.13;;;23.80;99.90;;;;;;5053281;28;20185;-65
2022/07/22 09:17:38;;;;;;;7.35;6.43;;;23.80;99.90;;;;;;5052621;28;20181;-67
2022/07/22 09:20:16;;;;;;;7.22;6.63;;;23.80;99.90;;;;;;5053292;28;20198;-66
2022/07/22 09:22:44;;;;;;;9.68;6.90;;;24.00;99.90;;;;;;5053469;28;20179;-66
2022/07/22 09:25:30;;;;;;;8.88;7.07;;;23.90;99.90;;;;;;5052176;28;20286;-66
2022/07/22 09:28:08;;;;;;;8.82;6.55;;;24.10;99.90;;;;;;5055088;28;20180;-66
2022/07/22 09:30:39;;;;;;;9.40;7.70;;;24.10;99.90;;;;;;5073432;28;20561;-66
2022/07/22 09:33:07;;;;;;;8.27;7.55;;;24.00;99.90;;;;;;5059115;28;20186;-66
2022/07/22 09:35:32;;;;;;;10.02;6.97;;;24.00;99.90;;;;;;5051387;28;20257;-66
2022/07/22 09:38:00;;;;;;;8.98;7.40;;;24.00;99.90;;;;;;5052785;28;20175;-65
2022/07/22 09:40:29;;;;;;;10.75;8.27;;;24.10;99.90;;;;;;5050494;28;20222;-66
2022/07/22 09:43:00;;;;;;;10.63;8.05;;;24.40;99.90;;;;;;5052714;28;20179;-66
2022/07/22 09:45:28;;;;;;;8.00;7.15;;;24.30;99.90;;;;;;5052544;28;20202;-66
2022/07/22 09:47:55;;;;;;;9.82;8.10;;;24.30;99.90;;;;;;5052008;28;20186;-67
2022/07/22 09:50:25;;;;;;;9.02;7.80;;;24.40;99.90;;;;;;5052597;28;20204;-67
2022/07/22 09:52:53;;;;;;;10.07;7.95;;;24.40;99.90;;;;;;5053758;28;20179;-66
2022/07/22 09:55:21;;;;;;;10.30;9.32;;;24.20;99.90;;;;;;5072207;28;20219;-65
2022/07/22 09:57:48;;;;;;;10.57;9.07;;;24.10;99.90;;;;;;5055806;28;20183;-66
2022/07/22 10:00:18;;;;;;;10.98;9.95;;;24.00;99.90;;;;;;5052453;28;20610;-67
2022/07/22 10:02:53;;;;;;;12.13;9.02;;;23.80;99.90;;;;;;5051174;28;20183;-68
2022/07/22 10:05:22;;;;;;;10.75;9.65;;;23.90;99.90;;;;;;5057579;28;20209;-67
2022/07/22 10:07:48;;;;;;;11.23;8.68;;;23.90;99.90;;;;;;5050973;28;20207;-66
2022/07/22 10:10:17;;;;;;;12.73;10.00;;;23.90;99.90;;;;;;5055648;28;20205;-67
2022/07/22 10:12:43;;;;;;;12.75;10.65;;;24.30;99.90;;;;;;5060132;28;20182;-67
2022/07/22 10:15:10;;;;;;;13.50;10.85;;;24.40;99.90;;;;;;5051685;28;20186;-66
2022/07/22 10:17:41;;;;;;;14.25;10.00;;;24.40;99.90;;;;;;5052349;28;20178;-66
2022/07/22 10:20:09;;;;;;;11.25;9.05;;;24.60;99.90;;;;;;5052304;28;20259;-66
2022/07/22 10:22:46;;;;;;;9.90;8.18;;;24.60;99.90;;;;;;5051746;28;20182;-67
2022/07/22 10:25:14;;;;;;;9.50;8.13;;;24.60;99.90;;;;;;5051550;28;20237;-67
2022/07/22 10:28:00;;;;;;;8.68;7.80;;;24.90;99.90;;;;;;5065567;28;20170;-67
2022/07/22 10:30:27;;;;;;;14.20;8.38;;;25.00;99.90;;;;;;5071960;28;20563;-65
2022/07/22 10:33:11;;;;;;;10.15;9.02;;;24.70;99.90;;;;;;5072023;28;20516;-67
2022/07/22 10:35:55;;;;;;;10.00;8.90;;;24.60;99.90;;;;;;5071713;28;20174;-67
2022/07/22 10:38:21;;;;;;;9.32;8.43;;;24.60;99.90;;;;;;5071907;28;20200;-66
2022/07/22 10:40:51;;;;;;;12.13;9.07;;;24.40;99.90;;;;;;5071342;28;20301;-67
2022/07/22 10:43:23;;;;;;;13.77;11.40;;;24.40;99.90;;;;;;5067641;28;20170;-67
2022/07/22 10:45:50;;;;;;;10.88;9.88;;;24.30;99.90;;;;;;5051888;28;20634;-66
2022/07/22 10:48:17;;;;;;;15.35;9.73;;;24.30;99.90;;;;;;5051544;28;20594;-67
2022/07/22 10:50:49;;;;;;;12.10;9.52;;;24.30;99.90;;;;;;5051590;28;20191;-67
2022/07/22 10:53:21;;;;;;;12.63;10.55;;;24.10;99.90;;;;;;5051664;28;20178;-66
2022/07/22 10:56:13;;;;;;;11.35;9.98;;;23.90;99.90;;;;;;5051504;28;20258;-66
2022/07/22 10:58:40;;;;;;;11.85;10.20;;;24.00;99.90;;;;;;5051892;28;20217;-66
2022/07/22 11:01:09;;;;;;;11.45;9.45;;;24.20;99.90;;;;;;5050933;28;20206;-65
2022/07/22 11:03:36;;;;;;;10.70;9.45;;;24.40;99.90;;;;;;5049501;28;20221;-66
2022/07/22 11:06:28;;;;;;;11.20;10.02;;;24.50;99.90;;;;;;5071593;28;20224;-65
2022/07/22 11:09:02;;;;;;;9.95;8.85;;;24.60;99.90;;;;;;5060420;28;20175;-66
2022/07/22 11:11:43;;;;;;;14.82;10.50;;;24.50;99.90;;;;;;5051851;28;20162;-66
2022/07/22 11:14:16;;;;;;;11.57;9.95;;;24.80;99.90;;;;;;5051330;28;20650;-66
2022/07/22 11:16:42;;;;;;;12.38;10.23;;;25.20;99.90;;;;;;5049667;28;20179;-65
2022/07/22 11:19:08;;;;;;;13.52;10.13;;;25.40;99.90;;;;;;5049712;28;20566;-66
2022/07/22 11:21:34;;;;;;;13.20;10.48;;;25.30;99.90;;;;;;5066739;28;20224;-66
2022/07/22 11:24:03;;;;;;;18.83;11.07;;;25.20;99.90;;;;;;5056365;28;20516;-66
2022/07/22 11:26:39;;;;;;;13.98;11.63;;;25.50;99.90;;;;;;5051812;28;20163;-66
2022/07/22 11:29:05;;;;;;;11.57;10.05;;;26.00;99.90;;;;;;5051211;28;20167;-66
2022/07/22 11:31:30;;;;;;;10.88;9.80;;;26.30;99.90;;;;;;5051457;28;20655;-66
2022/07/22 11:34:11;;;;;;;13.73;9.48;;;26.50;99.90;;;;;;5052834;28;20265;-66
2022/07/22 11:36:39;;;;;;;11.13;10.00;;;26.70;99.90;;;;;;5055203;28;20170;-66
2022/07/22 11:39:06;;;;;;;14.15;10.32;;;26.70;99.90;;;;;;5054801;28;20190;-66
2022/07/22 11:41:32;;;;;;;12.63;11.32;;;26.80;99.90;;;;;;5053559;28;20599;-66
2022/07/22 11:43:59;;;;;;;12.63;11.32;;;26.50;99.90;;;;;;5054968;28;20201;-66
2022/07/22 11:46:25;;;;;;;12.60;10.57;;;26.40;99.90;;;;;;5055317;28;20182;-67
2022/07/22 11:48:52;;;;;;;13.30;11.35;;;26.60;99.90;;;;;;5055013;28;20237;-65
2022/07/22 11:51:18;;;;;;;14.02;11.80;;;27.00;99.90;;;;;;5054715;28;20171;-66
2022/07/22 11:53:44;;;;;;;12.10;10.57;;;27.80;99.90;;;;;;5058577;28;20179;-66
2022/07/22 11:56:11;;;;;;;11.48;9.90;;;28.20;99.90;;;;;;5055073;28;20665;-66
2022/07/22 11:58:42;;;;;;;11.70;10.13;;;28.10;99.90;;;;;;5073843;28;20181;-66
2022/07/22 12:01:16;;;;;;;13.07;11.80;;;27.90;99.90;;;;;;5058019;28;20566;-66
2022/07/22 12:03:46;;;;;;;12.80;11.48;;;27.60;99.90;;;;;;5054915;28;20180;-66
2022/07/22 12:06:14;;;;;;;12.38;10.98;;;27.30;99.90;;;;;;5053282;28;20206;-66
2022/07/22 12:08:43;;;;;;;15.10;11.85;;;27.50;99.90;;;;;;5054494;28;20202;-66
2022/07/22 12:11:11;;;;;;;15.82;12.15;;;27.80;99.90;;;;;;5059139;28;20187;-65
2022/07/22 12:13:41;;;;;;;15.05;13.40;;;28.00;99.90;;;;;;5054380;28;20190;-66
2022/07/22 12:16:29;;;;;;;13.60;12.20;;;28.10;99.90;;;;;;5034195;28;20178;-64
2022/07/22 12:19:02;;;;;;;12.40;11.15;;;28.20;99.90;;;;;;5036834;28;20552;-65
2022/07/22 12:21:30;;;;;;;16.33;13.10;;;28.50;99.90;;;;;;5053498;28;20182;-66
2022/07/22 12:24:07;;;;;;;13.88;12.48;;;28.40;99.90;;;;;;5054226;28;20170;-65
2022/07/22 12:26:48;;;;;;;15.07;12.75;;;28.20;99.90;;;;;;5054952;28;20178;-66
2022/07/22 12:29:30;;;;;;;17.38;12.98;;;28.20;99.90;;;;;;5074142;28;20214;-66
2022/07/22 12:32:02;;;;;;;16.25;13.25;;;28.20;99.90;;;;;;5069510;28;20659;-66
2022/07/22 12:34:42;;;;;;;16.17;13.60;;;28.20;99.90;;;;;;5054042;28;20182;-65
2022/07/22 12:37:40;;;;;;;15.98;12.90;;;28.50;99.90;;;;;;5053979;28;20210;-66